Latest Weather Observations for Devonport Airport

IDT60801

Issued at 10:35 pm EDT Sunday 23 November 2014 (issued every 30 minutes, with the page automatically refreshed every 10 minutes)

About weather observations | Map of weather stations | Latest weather observations for TAS | Other Formats
Station Details ID: 091126 Name: DEVONPORT AIRPORT Lat: -41.17 Lon: 146.43 Height: 8.0 m
Data from the previous 72 hours. | See also: Recent months at Devonport Airport
Date/Time
EDT
Temp
°C
App
Temp
°C
Dew
Point
Rel
Hum
%
Delta-T
°C
Wind Press
QNH
hPa
Press
MSL
hPa
Rain
since 9 am
mm
Dir
 
Spd
km/h
Gust
km/h
Spd
kts
Gust
kts
23/10:30pm 16.1 14.0 6.5 53 4.7 SW 7 11 4 6 1012.5 1012.5 0.0
23/10:00pm 14.6 11.8 6.9 60 3.8 W 11 13 6 7 1012.5 1012.5 0.0
23/09:30pm 15.4 11.5 6.9 57 4.2 WSW 17 20 9 11 1012.3 1012.3 0.0
23/09:00pm 15.3 11.5 7.6 60 3.8 W 17 20 9 11 1012.0 1012.0 0.0
23/08:30pm 16.0 11.4 11.2 73 2.6 WNW 26 32 14 17 1011.6 1011.6 0.0
23/08:00pm 15.9 10.4 11.9 77 2.2 WNW 32 39 17 21 1011.1 1011.1 0.0
23/07:30pm 16.2 9.2 11.2 72 2.7 NW 39 46 21 25 1010.6 1010.6 0.0
23/07:00pm 16.4 8.6 11.1 71 2.8 NW 43 54 23 29 1010.1 1010.1 0.0
23/06:30pm 16.8 9.0 11.1 69 3.1 NW 43 54 23 29 1009.7 1009.7 0.0
23/06:00pm 17.2 9.5 11.5 69 3.1 NW 43 56 23 30 1009.6 1009.6 0.0
23/05:30pm 17.3 9.4 11.6 69 3.1 NW 44 56 24 30 1009.4 1009.4 0.0
23/05:00pm 17.3 9.7 11.8 70 3.0 NW 43 56 23 30 1009.2 1009.2 0.0
23/04:30pm 17.8 11.2 12.5 71 2.9 NNW 39 50 21 27 1009.4 1009.4 0.0
23/04:00pm 17.3 11.8 12.0 71 2.9 NW 32 41 17 22 1009.1 1009.1 0.0
23/03:30pm 17.8 12.8 12.3 70 3.0 NNW 30 39 16 21 1009.3 1009.3 0.0
23/03:00pm 17.4 11.9 11.9 70 3.0 NW 32 41 17 22 1009.4 1009.4 0.0
23/02:30pm 17.6 12.7 12.7 73 2.7 NW 30 43 16 23 1009.6 1009.6 0.0
23/02:00pm 17.5 12.0 12.0 70 3.0 NW 32 39 17 21 1009.8 1009.8 0.0
23/01:30pm 17.1 11.8 12.6 75 2.5 NW 32 41 17 22 1010.2 1010.2 0.0
23/01:00pm 17.4 12.0 12.1 71 2.9 NW 32 41 17 22 1010.2 1010.2 0.0
23/12:30pm 16.9 10.9 12.0 73 2.7 NW 35 43 19 23 1010.3 1010.3 0.0
23/12:00pm 16.8 10.7 11.9 73 2.7 NNW 35 44 19 24 1010.4 1010.4 0.0
23/11:30am 16.8 11.3 11.9 73 2.7 NNW 32 39 17 21 1010.4 1010.4 0.0
23/11:00am 16.7 11.4 11.4 71 2.9 NW 30 39 16 21 1010.4 1010.4 0.0
23/10:30am 16.5 11.7 11.6 73 2.7 NW 28 35 15 19 1010.2 1010.2 0.0
23/10:00am 16.4 11.9 11.3 72 2.8 NW 26 32 14 17 1010.1 1010.1 0.0
23/09:30am 16.2 11.8 10.3 68 3.1 NW 24 30 13 16 1009.9 1009.9 0.0
23/09:00am 15.4 11.3 10.2 71 2.7 NW 22 28 12 15 1010.2 1010.2 1.2
23/08:30am 15.1 10.7 10.3 73 2.5 WNW 24 30 13 16 1009.9 1009.9 1.2
23/08:00am 14.7 11.0 10.1 74 2.4 WNW 20 26 11 14 1009.3 1009.3 1.2
23/07:30am 14.4 12.0 10.0 75 2.3 W 13 17 7 9 1009.0 1009.0 1.2
23/07:00am 13.2 10.3 9.6 79 1.8 WSW 15 19 8 10 1008.5 1008.5 1.2
23/06:30am 11.3 8.2 9.0 86 1.1 WSW 15 19 8 10 1007.9 1007.9 1.2
23/06:00am 11.1 7.5 8.5 84 1.3 WSW 17 20 9 11 1007.4 1007.4 1.2
23/05:30am 11.9 9.5 10.0 88 1.0 SW 13 17 7 9 1006.9 1006.9 1.2
23/05:00am 12.7 9.9 11.3 91 0.7 W 17 20 9 11 1006.7 1006.7 1.2
23/04:30am 11.4 9.4 10.1 92 0.7 WSW 11 11 6 6 1006.3 1006.3 1.0
23/04:00am 11.9 10.1 11.0 94 0.5 W 11 15 6 8 1006.0 1006.0 1.0
23/03:30am 12.3 10.3 11.5 95 0.4 W 13 17 7 9 1005.9 1005.9 1.0
23/03:00am 13.3 11.7 12.7 96 0.3 WNW 13 17 7 9 1005.9 1005.9 1.0
23/02:30am 11.7 9.2 11.2 97 0.3 W 15 17 8 9 1006.2 1006.2 1.0
23/02:13am 11.4 9.2 10.9 97 0.3 W 13 15 7 8 1006.1 1006.1 1.0
23/02:00am 11.2 9.4 10.7 97 0.3 WSW 11 13 6 7 1005.9 1005.9 1.0
23/01:30am 10.7 9.0 9.8 94 0.5 WSW 9 11 5 6 1005.4 1005.4 1.0
23/01:00am 12.1 12.1 11.2 94 0.5 WSW 2 9 1 5 1005.6 1005.6 1.0
23/12:50am 12.5 12.9 11.4 93 0.6 CALM 0 0 0 0 1005.7 1005.7 1.0
23/12:30am 13.7 13.2 12.6 93 0.6 S 7 11 4 6 1005.7 1005.7 1.0
23/12:00am 13.9 12.7 12.8 93 0.6 SSW 11 13 6 7 1005.7 1005.7 1.0
 
Date/Time
EDT
Temp
°C
App
Temp
°C
Dew
Point
Rel
Hum
%
Delta-T
°C
Wind Press
QNH
hPa
Press
MSL
hPa
Rain
since 9 am
mm
Dir
 
Spd
km/h
Gust
km/h
Spd
kts
Gust
kts
22/11:30pm 14.0 12.1 13.1 94 0.5 S 15 19 8 10 1005.3 1005.3 0.8
22/11:00pm 13.7 13.2 12.6 93 0.6 S 7 13 4 7 1006.1 1006.1 0.8
22/10:30pm 13.0 12.8 11.9 93 0.6 SSW 4 13 2 7 1006.6 1006.6 0.6
22/10:00pm 13.0 12.2 11.6 91 0.7 S 7 11 4 6 1006.8 1006.8 0.6
22/09:30pm 12.9 12.0 11.3 90 0.8 SE 7 9 4 5 1006.4 1006.4 0.6
22/09:00pm 14.1 13.7 12.3 89 1.0 ESE 6 7 3 4 1006.3 1006.3 0.6
22/08:30pm 14.4 13.9 12.6 89 1.0 ENE 7 9 4 5 1006.5 1006.5 0.6
22/08:00pm 15.0 13.8 12.9 87 1.2 ENE 11 13 6 7 1006.6 1006.6 0.6
22/07:30pm 15.7 14.1 12.8 83 1.6 NE 13 15 7 8 1006.5 1006.5 0.6
22/07:00pm 16.0 14.1 12.9 82 1.7 ENE 15 19 8 10 1006.5 1006.5 0.6
22/06:30pm 15.9 14.1 13.2 84 1.5 NE 15 19 8 10 1006.7 1006.7 0.6
22/06:00pm 15.7 13.7 12.8 83 1.6 NE 15 19 8 10 1007.0 1007.0 0.6
22/05:30pm 16.0 14.1 12.9 82 1.7 NNE 15 17 8 9 1007.0 1007.0 0.6
22/05:00pm 16.6 14.7 13.1 80 2.0 NE 15 20 8 11 1007.0 1007.0 0.6
22/04:30pm 16.4 14.9 13.1 81 1.8 ENE 13 19 7 10 1007.3 1007.3 0.6
22/04:00pm 15.9 14.3 13.9 88 1.1 ENE 15 19 8 10 1007.7 1007.7 0.6
22/03:30pm 15.0 14.1 13.7 92 0.7 NE 11 17 6 9 1008.5 1008.5 0.4
22/03:26pm 14.8 13.7 13.2 90 0.9 NE 11 13 6 7 1008.6 1008.6 0.4
22/03:00pm 15.5 14.0 13.2 86 1.3 NNE 13 17 7 9 1009.1 1009.1 0.0
22/02:30pm 16.0 14.6 13.5 85 1.4 NE 13 17 7 9 1009.1 1009.1 0.0
22/02:25pm 15.8 14.0 13.3 85 1.4 NE 15 20 8 11 1009.1 1009.1 0.0
22/02:00pm 15.3 12.7 13.3 88 1.1 NE 19 20 10 11 1009.1 1009.1 0.0
22/01:30pm 15.3 13.0 13.1 87 1.2 NE 17 20 9 11 1010.0 1010.0 0.0
22/01:00pm 14.9 12.4 12.4 85 1.4 NNE 17 20 9 11 1010.6 1010.6 0.0
22/12:30pm 15.7 13.5 12.1 79 2.0 NE 15 22 8 12 1010.3 1010.3 0.0
22/12:00pm 16.3 13.8 13.4 83 1.6 NE 19 24 10 13 1010.3 1010.3 0.0
22/11:30am 16.0 13.6 12.6 80 1.9 NE 17 22 9 12 1010.6 1010.6 0.0
22/11:00am 15.4 13.2 12.2 81 1.7 NE 15 19 8 10 1010.9 1010.9 0.0
22/10:30am 14.7 13.0 11.3 80 1.8 NNE 11 15 6 8 1011.2 1011.2 0.0
22/10:00am 14.2 13.1 10.8 80 1.8 E 7 13 4 7 1010.8 1010.8 0.0
22/09:46am 13.9 12.9 10.3 79 1.9 SE 6 9 3 5 1011.4 1011.4 0.0
22/09:30am 13.5 12.2 9.9 79 1.9 SSE 7 9 4 5 1011.5 1011.5 0.0
22/09:00am 13.0 10.8 9.3 78 1.9 SSE 11 13 6 7 1011.3 1011.3 0.2
22/08:30am 12.1 9.4 8.8 80 1.6 SSE 13 17 7 9 1011.4 1011.4 0.2
22/08:00am 11.6 9.6 8.5 81 1.5 S 9 13 5 7 1012.0 1012.0 0.2
22/07:57am 11.5 9.4 8.2 80 1.6 S 9 11 5 6 1012.0 1012.0 0.2
22/07:30am 11.0 8.8 7.7 80 1.6 S 9 11 5 6 1011.9 1011.9 0.2
22/07:00am 10.2 7.5 7.3 82 1.4 S 11 13 6 7 1011.6 1011.6 0.2
22/06:30am 8.6 5.7 6.4 86 1.0 S 11 13 6 7 1011.7 1011.7 0.2
22/06:00am 7.7 4.3 5.8 88 0.9 S 13 15 7 8 1011.1 1011.1 0.2
22/05:30am 6.7 3.1 5.2 90 0.7 S 13 17 7 9 1010.8 1010.8 0.2
22/05:00am 6.4 2.8 4.9 90 0.7 S 13 15 7 8 1010.5 1010.5 0.2
22/04:30am 6.1 2.7 4.1 87 0.9 SSW 11 15 6 8 1010.2 1010.2 0.2
22/04:00am 6.6 4.1 4.8 88 0.8 SSW 7 9 4 5 1010.2 1010.2 0.2
22/03:30am 7.0 4.6 5.3 89 0.8 S 7 9 4 5 1009.9 1009.9 0.2
22/03:00am 7.2 4.1 5.7 90 0.7 S 11 13 6 7 1009.7 1009.7 0.2
22/02:30am 7.0 4.5 5.0 87 0.9 SSE 7 9 4 5 1009.9 1009.9 0.2
22/02:00am 7.0 5.4 4.3 83 1.2 SW 2 7 1 4 1010.5 1010.5 0.2
22/01:30am 8.7 6.3 4.5 75 1.9 WSW 6 7 3 4 1011.2 1011.2 0.2
22/01:00am 9.9 6.1 5.7 75 1.9 WNW 15 19 8 10 1011.7 1011.7 0.2
22/12:30am 10.0 6.5 5.4 73 2.1 WNW 13 15 7 8 1011.8 1011.8 0.2
22/12:00am 11.4 9.3 5.9 69 2.6 WSW 6 9 3 5 1011.7 1011.7 0.2
 
Date/Time
EDT
Temp
°C
App
Temp
°C
Dew
Point
Rel
Hum
%
Delta-T
°C
Wind Press
QNH
hPa
Press
MSL
hPa
Rain
since 9 am
mm
Dir
 
Spd
km/h
Gust
km/h
Spd
kts
Gust
kts
21/11:30pm 10.5 7.8 5.5 71 2.3 W 9 13 5 7 1011.8 1011.8 0.2
21/11:00pm 11.9 7.4 6.2 68 2.7 W 19 24 10 13 1011.7 1011.7 0.2
21/10:30pm 13.8 7.8 7.1 64 3.3 WNW 28 33 15 18 1011.6 1011.6 0.2
21/10:00pm 14.1 8.7 9.5 74 2.4 WNW 28 33 15 18 1011.5 1011.5 0.2
21/09:30pm 14.4 8.7 9.8 74 2.4 NW 30 35 16 19 1011.2 1011.2 0.2
21/09:00pm 14.5 9.2 9.9 74 2.4 WNW 28 37 15 20 1010.6 1010.6 0.2
21/08:30pm 14.4 7.8 10.0 75 2.3 NW 35 44 19 24 1010.2 1010.2 0.2
21/08:00pm 14.5 8.6 10.3 76 2.2 NW 32 39 17 21 1009.7 1009.7 0.2
21/07:30pm 15.0 8.8 10.2 73 2.5 NW 33 41 18 22 1009.3 1009.3 0.2
21/07:00pm 15.3 9.2 10.5 73 2.5 NW 33 43 18 23 1008.7 1008.7 0.2
21/06:30pm 15.7 9.7 10.7 72 2.7 NW 33 43 18 23 1008.1 1008.1 0.2
21/06:00pm 16.0 9.6 10.7 71 2.8 NW 35 46 19 25 1007.8 1007.8 0.2
21/05:30pm 16.2 9.9 10.9 71 2.8 NW 35 43 19 23 1007.7 1007.7 0.2
21/05:00pm 16.3 10.4 10.6 69 3.0 NNW 32 43 17 23 1007.5 1007.5 0.2
21/04:30pm 16.7 11.3 10.8 68 3.2 NNW 30 37 16 20 1007.2 1007.2 0.2
21/04:00pm 17.8 12.5 9.7 59 4.3 WNW 28 35 15 19 1007.2 1007.2 0.2
21/03:30pm 18.8 13.4 6.3 44 6.2 W 24 35 13 19 1007.2 1007.2 0.2
21/03:00pm 19.1 12.9 6.2 43 6.4 WSW 28 37 15 20 1006.9 1006.9 0.2
21/02:30pm 19.2 13.3 7.6 47 5.9 W 28 43 15 23 1006.7 1006.7 0.2
21/02:00pm 18.5 11.9 7.6 49 5.6 W 32 39 17 21 1006.8 1006.8 0.2
21/01:30pm 18.9 12.6 9.1 53 5.1 W 32 44 17 24 1006.6 1006.6 0.2
21/01:00pm 17.5 12.4 7.5 52 5.1 W 24 39 13 21 1006.6 1006.6 0.2
21/12:30pm 17.8 13.1 9.4 58 4.4 W 24 32 13 17 1006.3 1006.3 0.2
21/12:00pm 16.6 11.5 9.1 61 3.9 W 26 35 14 19 1006.1 1006.1 0.0
21/11:30am 15.3 8.6 8.3 63 3.5 W 33 41 18 22 1006.1 1006.1 0.0
21/11:00am 15.1 9.9 8.8 66 3.2 W 26 33 14 18 1005.7 1005.7 0.0
21/10:30am 14.7 8.3 8.4 66 3.2 W 32 39 17 21 1005.6 1005.6 0.0
21/10:00am 15.7 8.4 8.9 64 3.5 W 37 46 20 25 1005.1 1005.1 0.0
21/09:30am 15.6 9.8 9.3 66 3.2 W 30 41 16 22 1004.7 1004.7 0.0
21/09:00am 15.0 10.0 12.1 83 1.6 WNW 30 37 16 20 1004.5 1004.5 5.8
21/08:30am 14.8 9.8 12.3 85 1.4 WNW 30 35 16 19 1003.8 1003.8 5.8
21/08:00am 15.1 10.2 12.4 84 1.5 WNW 30 35 16 19 1003.6 1003.6 5.8
21/07:30am 14.6 10.1 12.5 87 1.1 WNW 28 37 15 20 1003.0 1003.0 5.8
21/07:00am 14.5 9.6 12.5 88 1.1 WNW 30 39 16 21 1002.6 1002.6 5.8
21/06:30am 14.1 11.2 12.3 89 1.0 W 19 30 10 16 1002.4 1002.4 5.8
21/06:00am 13.3 10.7 12.0 92 0.7 W 17 24 9 13 1002.1 1002.1 5.8
21/05:30am 14.1 10.4 12.8 92 0.7 WNW 24 28 13 15 1001.4 1001.4 5.8
21/05:00am 14.2 10.6 13.1 93 0.6 WNW 24 32 13 17 1001.3 1001.3 5.8
21/04:30am 14.3 10.7 13.2 93 0.6 WNW 24 30 13 16 1001.2 1001.2 5.8
21/04:00am 14.4 10.9 13.4 94 0.6 WNW 24 28 13 15 1001.1 1001.1 5.8
21/03:30am 14.5 11.4 13.5 94 0.6 WNW 22 28 12 15 1000.8 1000.8 5.8
21/03:00am 14.6 11.6 13.6 94 0.6 WNW 22 28 12 15 1001.1 1001.1 5.8
21/02:30am 14.5 12.4 13.7 95 0.4 WNW 17 22 9 12 1001.3 1001.3 5.8
21/02:00am 14.6 11.6 13.8 95 0.5 WNW 22 28 12 15 1001.5 1001.5 5.8
21/01:30am 14.7 11.8 13.9 95 0.4 NW 22 28 12 15 1001.9 1001.9 5.8
21/01:00am 14.8 12.0 14.2 96 0.3 NW 22 28 12 15 1002.3 1002.3 5.8
21/12:51am 14.8 12.0 14.2 96 0.3 NW 22 28 12 15 1002.3 1002.3 5.8
21/12:30am 14.9 11.6 14.1 95 0.5 NW 24 30 13 16 1002.5 1002.5 5.8
21/12:00am 14.9 13.1 14.4 97 0.3 NNW 17 20 9 11 1002.6 1002.6 5.8
 
Date/Time
EDT
Temp
°C
App
Temp
°C
Dew
Point
Rel
Hum
%
Delta-T
°C
Wind Press
QNH
hPa
Press
MSL
hPa
Rain
since 9 am
mm
Dir
 
Spd
km/h
Gust
km/h
Spd
kts
Gust
kts
20/11:30pm 15.0 13.2 14.4 96 0.3 NNW 17 24 9 13 1002.7 1002.7 5.8
20/11:23pm 15.0 12.8 14.4 96 0.3 NW 19 24 10 13 1002.8 1002.8 5.8
20/11:05pm 15.0 12.6 14.4 96 0.3 NW 20 28 11 15 1002.9 1002.9 5.8
20/11:00pm 14.9 12.7 14.3 96 0.3 NNW 19 26 10 14 1002.8 1002.8 5.8

Other Formats:

Comma delimited format used in spreadsheet applications
http://www.bom.gov.au/fwo/IDT60801/IDT60801.95960.axf

JavaScript Object Notation format (JSON) in row-major order
http://www.bom.gov.au/fwo/IDT60801/IDT60801.95960.json